Vanderpool, Texas
Current Conditions -  °F | °C
As of 1:15 PM on Tuesday 21 Oct 2014 (Local Time) from KERV Reporting Station
Clear Clear  
Wind Chill: 77°   Ceiling: Unl
Heat Index: 78°   Visibility: 10mi
Dew Point: 58°   Wind: 6mph
Humidity: 52%   Direction: 90°E
Pressure: 30.07"   Gusts: NA
Location:  29.75°N, 99.56°W
Report Text: KERV 211815Z AUTO 09005KT 10SM CLR 25/14 A3007 RMK AO2 T02480143
Loading
Personal Weather Stations






























Interactive Weather Map
Tropical Storm Tracking
New forecast layout! Learn more

10-Day Weather Forecast

Advertisements
Track Severe Weather on mobile